createdAt,value
2019-05-30T00:00:41.483Z,6.24
2019-05-30T00:01:41.384Z,6.11
2019-05-30T00:02:41.289Z,6.14
2019-05-30T00:03:41.187Z,6.14
2019-05-30T00:04:41.101Z,6.20
2019-05-30T00:05:40.987Z,6.38
2019-05-30T00:06:40.889Z,6.32
2019-05-30T00:07:40.830Z,6.33
2019-05-30T00:08:40.692Z,6.38
2019-05-30T00:09:40.593Z,6.36
2019-05-30T00:10:40.913Z,6.24
2019-05-30T00:11:40.396Z,6.20
2019-05-30T00:12:40.366Z,6.19
2019-05-30T00:13:40.193Z,6.17
2019-05-30T00:14:40.099Z,6.17
2019-05-30T00:15:40.018Z,6.27
2019-05-30T00:16:39.899Z,6.21
2019-05-30T00:17:39.908Z,6.30
2019-05-30T00:18:39.718Z,6.30
2019-05-30T00:19:39.605Z,6.24
2019-05-30T00:20:39.519Z,6.17
2019-05-30T00:21:39.404Z,6.11
2019-05-30T00:22:39.304Z,6.10
2019-05-30T00:23:39.208Z,5.99
2019-05-30T00:24:39.214Z,6.02
2019-05-30T00:25:39.024Z,6.16
2019-05-30T00:26:38.908Z,6.01
2019-05-30T00:27:38.810Z,6.11
2019-05-30T00:28:38.709Z,6.17
2019-05-30T00:29:38.613Z,6.20
2019-05-30T00:30:38.546Z,6.25
2019-05-30T00:31:38.532Z,6.27
2019-05-30T00:32:38.315Z,6.19
2019-05-30T00:33:38.215Z,6.27
2019-05-30T00:34:38.114Z,6.19
2019-05-30T00:35:38.034Z,6.14
2019-05-30T00:36:37.918Z,6.08
2019-05-30T00:37:37.945Z,6.19
2019-05-30T00:38:37.722Z,6.01
2019-05-30T00:39:37.619Z,6.10
2019-05-30T00:40:37.535Z,6.03
2019-05-30T00:41:37.421Z,6.06
2019-05-30T00:42:37.324Z,6.02
2019-05-30T00:43:37.221Z,6.01
2019-05-30T00:44:37.123Z,6.03
2019-05-30T00:45:37.038Z,6.06
2019-05-30T00:46:36.926Z,5.99
2019-05-30T00:47:36.828Z,5.98
2019-05-30T00:48:36.727Z,5.95
2019-05-30T00:49:36.641Z,5.98
2019-05-30T00:50:36.548Z,5.83
2019-05-30T00:51:36.428Z,5.83
2019-05-30T00:52:36.331Z,5.67
2019-05-30T00:53:36.235Z,5.73
2019-05-30T00:54:36.132Z,5.74
2019-05-30T00:55:36.047Z,5.65
2019-05-30T00:56:35.936Z,5.60
2019-05-30T00:57:35.836Z,5.45
2019-05-30T00:58:35.737Z,5.35
2019-05-30T00:59:35.639Z,5.27
2019-05-30T01:00:43.618Z,5.29
2019-05-30T01:01:35.437Z,5.29
2019-05-30T01:02:35.360Z,5.27
2019-05-30T01:03:35.239Z,5.20
2019-05-30T01:04:35.143Z,5.15
2019-05-30T01:05:35.056Z,5.12
2019-05-30T01:06:34.942Z,5.06
2019-05-30T01:07:34.850Z,5.14
2019-05-30T01:08:34.745Z,5.04
2019-05-30T01:09:34.646Z,4.94
2019-05-30T01:10:34.546Z,4.99
2019-05-30T01:11:34.459Z,4.94
2019-05-30T01:12:34.345Z,4.97
2019-05-30T01:13:34.247Z,4.93
2019-05-30T01:14:34.151Z,4.93
2019-05-30T01:15:34.051Z,4.90
2019-05-30T01:16:33.966Z,4.90
2019-05-30T01:17:33.850Z,4.90
2019-05-30T01:18:33.773Z,4.86
2019-05-30T01:19:33.654Z,4.86
2019-05-30T01:20:33.553Z,4.77
2019-05-30T01:21:33.464Z,4.74
2019-05-30T01:22:33.352Z,4.69
2019-05-30T01:23:33.252Z,4.67
2019-05-30T01:24:33.153Z,4.65
2019-05-30T01:25:33.055Z,4.74
2019-05-30T01:26:32.967Z,4.69
2019-05-30T01:27:32.854Z,4.87
2019-05-30T01:28:32.754Z,4.84
2019-05-30T01:29:32.654Z,4.90
2019-05-30T01:30:32.554Z,4.91
2019-05-30T01:31:32.470Z,4.87
2019-05-30T01:32:32.358Z,5.19
2019-05-30T01:33:32.257Z,5.23
2019-05-30T01:34:32.159Z,5.40
2019-05-30T01:35:32.057Z,5.48
2019-05-30T01:36:31.971Z,5.49
2019-05-30T01:37:31.857Z,5.47
2019-05-30T01:38:31.768Z,5.45
2019-05-30T01:39:31.659Z,5.42
2019-05-30T01:40:31.605Z,5.45
2019-05-30T01:41:31.477Z,5.44
2019-05-30T01:42:31.382Z,5.35
2019-05-30T01:43:31.262Z,5.35
2019-05-30T01:44:31.161Z,5.33
2019-05-30T01:45:31.061Z,5.41
2019-05-30T01:46:30.975Z,5.47
2019-05-30T01:47:30.859Z,5.37
2019-05-30T01:48:30.770Z,5.32
2019-05-30T01:49:30.661Z,5.27
2019-05-30T01:50:30.564Z,5.24
2019-05-30T01:51:30.480Z,5.35
2019-05-30T01:52:30.365Z,5.37
2019-05-30T01:53:30.263Z,5.32
2019-05-30T01:54:30.163Z,5.37
2019-05-30T01:55:30.063Z,5.38
2019-05-30T01:56:29.983Z,5.35
2019-05-30T01:57:29.862Z,5.37
2019-05-30T01:58:29.761Z,5.29
2019-05-30T01:59:29.665Z,5.33
2019-05-30T02:00:29.566Z,5.35
2019-05-30T02:01:29.478Z,5.29
2019-05-30T02:02:29.365Z,5.37
2019-05-30T02:03:29.270Z,5.30
2019-05-30T02:04:29.165Z,5.32
2019-05-30T02:05:29.068Z,5.19
2019-05-30T02:06:28.987Z,5.17
2019-05-30T02:07:28.866Z,5.09
2019-05-30T02:08:28.879Z,5.11
2019-05-30T02:09:28.666Z,5.15
2019-05-30T02:10:28.566Z,5.20
2019-05-30T02:11:28.483Z,5.22
2019-05-30T02:12:28.367Z,5.14
2019-05-30T02:13:28.267Z,5.19
2019-05-30T02:14:28.170Z,5.08
2019-05-30T02:15:28.177Z,5.08
2019-05-30T02:16:27.995Z,5.12
2019-05-30T02:17:27.873Z,5.11
2019-05-30T02:18:27.768Z,5.20
2019-05-30T02:19:27.668Z,5.26
2019-05-30T02:20:27.568Z,5.35
2019-05-30T02:21:27.483Z,5.29
2019-05-30T02:22:27.476Z,5.30
2019-05-30T02:23:27.272Z,5.44
2019-05-30T02:24:27.171Z,5.45
2019-05-30T02:25:27.070Z,5.47
2019-05-30T02:26:26.986Z,5.52
2019-05-30T02:27:26.871Z,5.58
2019-05-30T02:28:26.774Z,5.60
2019-05-30T02:29:26.774Z,5.51
2019-05-30T02:30:26.572Z,5.51
2019-05-30T02:31:38.522Z,5.45
2019-05-30T02:32:26.386Z,5.51
2019-05-30T02:33:26.275Z,5.51
2019-05-30T02:34:26.178Z,5.41
2019-05-30T02:35:26.081Z,5.51
2019-05-30T02:36:26.083Z,5.62
2019-05-30T02:37:25.895Z,5.62
2019-05-30T02:38:25.773Z,5.60
2019-05-30T02:39:25.674Z,5.62
2019-05-30T02:40:25.573Z,5.65
2019-05-30T02:41:25.477Z,5.59
2019-05-30T02:42:25.394Z,5.59
2019-05-30T02:43:25.382Z,5.45
2019-05-30T02:44:25.176Z,5.49
2019-05-30T02:45:25.083Z,5.38
2019-05-30T02:46:24.982Z,5.32
2019-05-30T02:47:24.890Z,5.19
2019-05-30T02:48:24.785Z,5.20
2019-05-30T02:49:24.676Z,5.14
2019-05-30T02:50:24.684Z,5.15
2019-05-30T02:51:24.476Z,5.23
2019-05-30T02:52:24.392Z,5.12
2019-05-30T02:53:24.287Z,5.22
2019-05-30T02:54:24.175Z,5.24
2019-05-30T02:55:24.075Z,5.32
2019-05-30T02:56:23.978Z,5.32
2019-05-30T02:57:24.003Z,5.38
2019-05-30T02:58:23.776Z,5.35
2019-05-30T02:59:23.683Z,5.35
2019-05-30T03:00:23.577Z,5.40
2019-05-30T03:01:23.482Z,5.45
2019-05-30T03:02:23.398Z,5.47
2019-05-30T03:03:23.283Z,5.40
2019-05-30T03:04:23.284Z,5.41
2019-05-30T03:05:23.079Z,5.38
2019-05-30T03:06:22.978Z,5.38
2019-05-30T03:07:22.880Z,5.35
2019-05-30T03:08:22.793Z,5.44
2019-05-30T03:09:22.679Z,5.35
2019-05-30T03:10:22.580Z,5.41
2019-05-30T03:11:22.589Z,5.40
2019-05-30T03:12:22.383Z,5.35
2019-05-30T03:13:22.301Z,5.38
2019-05-30T03:14:22.181Z,5.40
2019-05-30T03:15:22.081Z,5.42
2019-05-30T03:16:21.981Z,5.32
2019-05-30T03:17:21.887Z,5.33
2019-05-30T03:18:21.903Z,5.38
2019-05-30T03:19:21.682Z,5.37
2019-05-30T03:20:23.463Z,5.19
2019-05-30T03:21:21.482Z,5.27
2019-05-30T03:22:21.385Z,5.19
2019-05-30T03:23:21.297Z,5.19
2019-05-30T03:24:21.286Z,5.22
2019-05-30T03:25:21.092Z,5.14
2019-05-30T03:26:20.989Z,5.26
2019-05-30T03:27:20.886Z,5.37
2019-05-30T03:28:20.798Z,5.45
2019-05-30T03:29:20.683Z,5.52
2019-05-30T03:30:27.710Z,5.49
2019-05-30T03:31:27.735Z,5.58
2019-05-30T03:33:37.475Z,5.47
2019-05-30T03:34:27.600Z,5.55
2019-05-30T03:35:28.837Z,5.59
2019-05-30T03:36:30.073Z,5.59
2019-05-30T03:37:28.079Z,5.62
2019-05-30T03:38:19.800Z,5.60
2019-05-30T03:39:19.685Z,5.58
2019-05-30T03:40:21.240Z,5.60
2019-05-30T03:41:19.487Z,5.51
2019-05-30T03:42:19.385Z,5.63
2019-05-30T03:43:19.300Z,5.58
2019-05-30T03:44:19.187Z,5.62
2019-05-30T03:45:19.087Z,5.65
2019-05-30T03:46:18.989Z,5.70
2019-05-30T03:47:18.889Z,5.60
2019-05-30T03:48:18.802Z,5.52
2019-05-30T03:49:18.696Z,5.58
2019-05-30T03:50:18.598Z,5.58
2019-05-30T03:51:18.490Z,5.65
2019-05-30T03:52:18.387Z,5.58
2019-05-30T03:53:18.305Z,5.73
2019-05-30T03:54:18.190Z,5.66
2019-05-30T03:55:18.089Z,5.60
2019-05-30T03:56:17.991Z,5.48
2019-05-30T03:57:17.893Z,5.51
2019-05-30T03:58:20.500Z,5.42
2019-05-30T03:59:18.067Z,5.49
2019-05-30T04:00:18.643Z,5.47
2019-05-30T04:01:18.671Z,5.45
2019-05-30T04:02:18.985Z,5.48
2019-05-30T04:03:19.207Z,5.47
2019-05-30T04:04:19.023Z,5.55
2019-05-30T04:05:17.091Z,5.52
2019-05-30T04:06:16.993Z,5.55
2019-05-30T04:07:16.897Z,5.58
2019-05-30T04:08:16.795Z,5.59
2019-05-30T04:09:22.369Z,5.66
2019-05-30T04:10:16.595Z,5.75
2019-05-30T04:11:16.920Z,5.65
2019-05-30T04:12:16.838Z,5.74
2019-05-30T04:13:17.716Z,5.73
2019-05-30T04:14:16.212Z,5.74
2019-05-30T04:15:18.155Z,5.90
2019-05-30T04:16:16.253Z,5.90
2019-05-30T04:17:17.695Z,6.02
2019-05-30T04:18:16.480Z,6.03
2019-05-30T04:19:17.757Z,6.02
2019-05-30T04:20:20.560Z,6.20
2019-05-30T04:21:18.173Z,6.17
2019-05-30T04:22:15.558Z,6.24
2019-05-30T04:23:16.650Z,6.33
2019-05-30T04:24:16.360Z,6.35
2019-05-30T04:25:16.623Z,6.36
2019-05-30T04:26:15.904Z,6.50
2019-05-30T04:27:16.082Z,6.61
2019-05-30T04:28:16.221Z,6.57
2019-05-30T04:29:16.661Z,6.60
2019-05-30T04:30:16.205Z,6.64
2019-05-30T04:31:14.706Z,6.65
2019-05-30T04:32:14.506Z,6.71
2019-05-30T04:33:26.464Z,6.53
2019-05-30T04:34:14.978Z,6.64
2019-05-30T04:35:14.643Z,6.61
2019-05-30T04:36:14.535Z,6.61
2019-05-30T04:37:14.833Z,6.63
2019-05-30T04:38:14.680Z,6.78
2019-05-30T04:39:15.155Z,6.75
2019-05-30T04:40:15.246Z,6.89
2019-05-30T04:41:15.702Z,6.86
2019-05-30T04:42:14.211Z,7.00
2019-05-30T04:43:13.527Z,6.97
2019-05-30T04:44:14.459Z,6.99
2019-05-30T04:45:13.682Z,7.01
2019-05-30T04:46:14.931Z,7.07
2019-05-30T04:47:14.273Z,7.07
2019-05-30T04:48:14.057Z,7.19
2019-05-30T04:49:14.258Z,7.54
2019-05-30T04:50:14.230Z,7.76
2019-05-30T04:51:14.091Z,7.99
2019-05-30T04:52:16.244Z,8.22
2019-05-30T04:53:13.636Z,8.40
2019-05-30T04:54:13.009Z,8.43
2019-05-30T04:55:13.477Z,8.34
2019-05-30T04:56:12.667Z,8.32
2019-05-30T04:57:12.721Z,8.24
2019-05-30T04:58:13.422Z,8.13
2019-05-30T04:59:12.943Z,8.00
2019-05-30T05:00:12.954Z,8.09
2019-05-30T05:01:12.930Z,8.09
2019-05-30T05:02:13.511Z,8.10
2019-05-30T05:03:11.756Z,8.21
2019-05-30T05:04:11.532Z,8.34
2019-05-30T05:05:11.452Z,8.31
2019-05-30T05:06:11.599Z,8.36
2019-05-30T05:07:11.546Z,8.40
2019-05-30T05:08:11.744Z,8.40
2019-05-30T05:09:12.001Z,8.47
2019-05-30T05:10:12.012Z,8.47
2019-05-30T05:11:14.083Z,8.46
2019-05-30T05:12:11.898Z,8.54
2019-05-30T05:13:10.387Z,8.54
2019-05-30T05:14:10.302Z,8.67
2019-05-30T05:15:10.190Z,8.68
2019-05-30T05:16:24.541Z,8.78
2019-05-30T05:17:10.301Z,8.82
2019-05-30T05:18:09.898Z,8.93
2019-05-30T05:19:09.804Z,8.94
2019-05-30T05:20:09.719Z,8.96
2019-05-30T05:21:09.609Z,9.04
2019-05-30T05:22:09.508Z,9.12
2019-05-30T05:23:09.411Z,9.20
2019-05-30T05:24:09.435Z,9.27
2019-05-30T05:25:09.216Z,9.20
2019-05-30T05:26:09.124Z,9.20
2019-05-30T05:27:09.929Z,9.22
2019-05-30T05:28:08.928Z,9.16
2019-05-30T05:29:08.836Z,9.30
2019-05-30T05:30:08.744Z,9.34
2019-05-30T05:31:08.738Z,9.44
2019-05-30T05:32:08.536Z,9.45
2019-05-30T05:33:08.440Z,9.52
2019-05-30T05:34:08.355Z,9.59
2019-05-30T05:35:08.245Z,9.62
2019-05-30T05:36:08.149Z,9.71
2019-05-30T05:37:08.062Z,9.71
2019-05-30T05:38:08.061Z,9.83
2019-05-30T05:39:07.860Z,9.92
2019-05-30T05:40:07.777Z,9.91
2019-05-30T05:41:07.663Z,9.99
2019-05-30T05:42:07.566Z,10.17
2019-05-30T05:43:07.472Z,10.17
2019-05-30T05:44:07.375Z,10.28
2019-05-30T05:45:07.397Z,10.32
2019-05-30T05:46:07.179Z,10.44
2019-05-30T05:47:07.083Z,10.46
2019-05-30T05:48:06.989Z,10.52
2019-05-30T05:49:06.897Z,10.54
2019-05-30T05:50:06.809Z,10.65
2019-05-30T05:51:06.700Z,10.62
2019-05-30T05:52:06.709Z,10.66
2019-05-30T05:53:06.505Z,10.68
2019-05-30T05:54:06.413Z,10.81
2019-05-30T05:55:06.325Z,10.90
2019-05-30T05:56:06.221Z,10.95
2019-05-30T05:57:06.118Z,11.01
2019-05-30T05:58:06.023Z,11.08
2019-05-30T05:59:06.034Z,11.21
2019-05-30T06:00:05.846Z,11.19
2019-05-30T06:01:05.741Z,11.30
2019-05-30T06:02:05.639Z,11.44
2019-05-30T06:03:05.542Z,11.42
2019-05-30T06:04:13.015Z,11.46
2019-05-30T06:05:05.365Z,11.53
2019-05-30T06:06:05.375Z,11.57
2019-05-30T06:07:05.160Z,11.63
2019-05-30T06:08:05.065Z,11.70
2019-05-30T06:09:04.968Z,11.93
2019-05-30T06:10:04.887Z,12.16
2019-05-30T06:11:04.780Z,12.38
2019-05-30T06:12:04.683Z,12.44
2019-05-30T06:13:04.590Z,12.46
2019-05-30T06:14:04.503Z,12.52
2019-05-30T06:15:04.463Z,12.46
2019-05-30T06:16:04.395Z,12.49
2019-05-30T06:17:04.208Z,12.51
2019-05-30T06:18:04.128Z,12.43
2019-05-30T06:19:04.017Z,12.41
2019-05-30T06:20:03.938Z,12.52
2019-05-30T06:21:03.831Z,12.44
2019-05-30T06:22:03.737Z,12.46
2019-05-30T06:23:03.644Z,12.38
2019-05-30T06:24:03.545Z,12.52
2019-05-30T06:25:03.456Z,12.58
2019-05-30T06:26:03.479Z,12.62
2019-05-30T06:27:03.257Z,12.67
2019-05-30T06:28:03.176Z,12.63
2019-05-30T06:29:03.070Z,12.70
2019-05-30T06:30:02.981Z,12.67
2019-05-30T06:31:02.897Z,12.69
2019-05-30T06:32:02.788Z,12.69
2019-05-30T06:33:02.692Z,12.73
2019-05-30T06:34:02.601Z,12.84
2019-05-30T06:35:02.504Z,12.89
2019-05-30T06:36:02.426Z,12.94
2019-05-30T06:37:02.314Z,13.09
2019-05-30T06:38:02.220Z,13.17
2019-05-30T06:39:02.129Z,13.47
2019-05-30T06:40:02.033Z,13.71
2019-05-30T06:41:01.952Z,13.90
2019-05-30T06:42:01.845Z,13.99
2019-05-30T06:43:01.751Z,14.39
2019-05-30T06:44:05.457Z,14.59
2019-05-30T06:45:01.564Z,14.82
2019-05-30T06:46:01.483Z,15.11
2019-05-30T06:47:01.374Z,15.19
2019-05-30T06:48:01.285Z,15.40
2019-05-30T06:49:01.193Z,15.52
2019-05-30T06:50:01.096Z,15.56
2019-05-30T06:51:01.017Z,15.60
2019-05-30T06:52:00.911Z,15.60
2019-05-30T06:53:00.820Z,15.76
2019-05-30T06:54:00.730Z,15.86
2019-05-30T06:55:00.638Z,15.95
2019-05-30T06:56:00.559Z,16.04
2019-05-30T06:57:00.452Z,16.17
2019-05-30T06:58:00.364Z,16.45
2019-05-30T06:59:00.271Z,16.55
2019-05-30T07:00:00.182Z,16.78
2019-05-30T07:01:00.103Z,16.85
2019-05-30T07:02:00.004Z,16.92
2019-05-30T07:02:59.940Z,17.09
2019-05-30T07:03:59.911Z,17.30
2019-05-30T07:05:00.200Z,17.30
2019-05-30T07:06:00.180Z,17.02
2019-05-30T07:06:59.740Z,17.30
2019-05-30T07:07:59.468Z,17.27
2019-05-30T07:08:59.377Z,17.15
2019-05-30T07:09:59.290Z,17.18
2019-05-30T07:10:59.219Z,17.07
2019-05-30T07:11:59.107Z,17.22
2019-05-30T07:12:59.021Z,17.32
2019-05-30T07:13:58.934Z,17.39
2019-05-30T07:14:58.846Z,17.63
2019-05-30T07:15:58.759Z,17.57
2019-05-30T07:16:58.683Z,17.71
2019-05-30T07:17:58.594Z,17.58
2019-05-30T07:18:58.494Z,17.66
2019-05-30T07:19:58.405Z,17.49
2019-05-30T07:20:58.318Z,17.66
2019-05-30T07:21:58.246Z,17.66
2019-05-30T07:22:58.144Z,17.79
2019-05-30T07:23:58.059Z,18.13
2019-05-30T07:24:57.971Z,18.25
2019-05-30T07:25:57.884Z,18.32
2019-05-30T07:26:57.810Z,18.44
2019-05-30T07:27:57.714Z,18.05
2019-05-30T07:29:00.518Z,18.23
2019-05-30T07:29:57.535Z,18.44
2019-05-30T07:30:57.447Z,18.39
2019-05-30T07:31:57.377Z,18.21
2019-05-30T07:32:57.275Z,18.05
2019-05-30T07:33:57.189Z,17.83
2019-05-30T07:35:05.992Z,17.74
2019-05-30T07:35:57.122Z,17.81
2019-05-30T07:36:56.942Z,18.02
2019-05-30T07:37:56.844Z,18.09
2019-05-30T07:38:56.755Z,17.84
2019-05-30T07:39:56.686Z,17.83
2019-05-30T07:40:56.583Z,18.20
2019-05-30T07:42:06.330Z,18.17
2019-05-30T07:42:56.519Z,18.54
2019-05-30T07:43:56.328Z,18.60
2019-05-30T07:44:56.239Z,18.84
2019-05-30T07:45:58.222Z,19.15
2019-05-30T07:46:56.081Z,19.20
2019-05-30T07:47:55.982Z,18.79
2019-05-30T07:48:55.894Z,18.62
2019-05-30T07:49:55.911Z,18.78
2019-05-30T07:50:55.723Z,18.84
2019-05-30T07:51:55.652Z,19.17
2019-05-30T07:52:55.549Z,19.31
2019-05-30T07:53:55.464Z,19.60
2019-05-30T07:54:55.381Z,19.49
2019-05-30T07:55:55.297Z,19.70
2019-05-30T07:56:55.326Z,19.86
2019-05-30T07:57:55.124Z,19.89
2019-05-30T07:58:55.037Z,19.70
2019-05-30T07:59:54.962Z,19.55
2019-05-30T08:00:54.866Z,19.57
2019-05-30T08:01:54.786Z,19.64
2019-05-30T08:02:54.712Z,19.92
2019-05-30T08:03:54.722Z,20.12
2019-05-30T08:04:54.523Z,19.52
2019-05-30T08:05:54.441Z,19.72
2019-05-30T08:06:54.353Z,19.94
2019-05-30T08:07:54.283Z,19.71
2019-05-30T08:08:54.183Z,19.87
2019-05-30T08:09:54.097Z,20.26
2019-05-30T08:11:08.314Z,20.23
2019-05-30T08:11:53.942Z,20.53
2019-05-30T08:12:53.857Z,20.38
2019-05-30T08:13:53.758Z,20.22
2019-05-30T08:14:53.671Z,20.26
2019-05-30T08:15:53.588Z,19.32
2019-05-30T08:16:53.504Z,19.43
2019-05-30T08:17:53.539Z,19.62
2019-05-30T08:18:53.332Z,19.82
2019-05-30T08:19:53.248Z,20.08
2019-05-30T08:20:53.163Z,20.40
2019-05-30T08:21:53.078Z,19.23
2019-05-30T08:22:53.023Z,17.79
2019-05-30T08:23:52.925Z,16.87
2019-05-30T08:24:52.929Z,17.02
2019-05-30T08:25:52.739Z,17.66
2019-05-30T08:26:52.655Z,18.26
2019-05-30T08:27:52.583Z,18.76
2019-05-30T08:28:52.490Z,19.12
2019-05-30T08:29:52.398Z,18.93
2019-05-30T08:30:52.311Z,18.57
2019-05-30T08:31:52.339Z,18.79
2019-05-30T08:32:52.156Z,19.21
2019-05-30T08:33:52.056Z,19.43
2019-05-30T08:34:51.971Z,19.39
2019-05-30T08:35:51.887Z,19.60
2019-05-30T08:36:51.800Z,19.64
2019-05-30T08:37:51.716Z,19.83
2019-05-30T08:38:51.643Z,19.76
2019-05-30T08:39:51.543Z,20.13
2019-05-30T08:40:51.455Z,20.16
2019-05-30T08:41:51.375Z,20.38
2019-05-30T08:42:51.298Z,20.34
2019-05-30T08:43:51.221Z,20.37
2019-05-30T08:44:51.118Z,20.57
2019-05-30T08:45:51.162Z,21.05
2019-05-30T08:46:50.947Z,21.06
2019-05-30T08:47:50.865Z,21.26
2019-05-30T08:48:50.810Z,21.56
2019-05-30T08:49:50.697Z,21.42
2019-05-30T08:50:50.608Z,21.05
2019-05-30T08:51:50.654Z,21.31
2019-05-30T08:52:50.443Z,21.52
2019-05-30T08:53:50.369Z,21.68
2019-05-30T08:54:50.283Z,21.53
2019-05-30T08:55:50.194Z,21.49
2019-05-30T08:56:50.102Z,21.11
2019-05-30T08:57:50.018Z,21.18
2019-05-30T08:58:49.955Z,21.15
2019-05-30T08:59:49.851Z,20.96
2019-05-30T09:00:49.765Z,21.15
2019-05-30T09:01:52.617Z,21.52
2019-05-30T09:02:49.598Z,21.70
2019-05-30T09:03:49.530Z,21.70
2019-05-30T09:04:49.429Z,22.21
2019-05-30T09:06:02.545Z,22.15
2019-05-30T09:06:49.263Z,21.96
2019-05-30T09:07:49.190Z,21.71
2019-05-30T09:08:49.112Z,21.96
2019-05-30T09:09:49.011Z,22.12
2019-05-30T09:10:48.930Z,22.27
2019-05-30T09:11:48.848Z,22.45
2019-05-30T09:12:49.632Z,22.09
2019-05-30T09:13:48.692Z,22.08
2019-05-30T09:14:48.593Z,21.43
2019-05-30T09:15:48.513Z,20.56
2019-05-30T09:16:49.608Z,21.15
2019-05-30T09:17:48.343Z,21.73
2019-05-30T09:18:48.275Z,21.59
2019-05-30T09:19:48.193Z,22.15
2019-05-30T09:20:48.094Z,22.42
2019-05-30T09:21:48.011Z,22.49
2019-05-30T09:22:47.934Z,22.66
2019-05-30T09:23:48.150Z,22.78
2019-05-30T09:24:48.167Z,22.29
2019-05-30T09:25:49.375Z,22.09
2019-05-30T09:26:50.298Z,21.93
2019-05-30T09:27:48.374Z,22.11
2019-05-30T09:28:48.277Z,22.19
2019-05-30T09:29:48.286Z,22.01
2019-05-30T09:30:48.413Z,22.20
2019-05-30T09:31:47.179Z,21.91
2019-05-30T09:32:47.202Z,21.81
2019-05-30T09:33:47.015Z,21.66
2019-05-30T09:34:47.054Z,21.77
2019-05-30T09:35:47.087Z,21.09
2019-05-30T09:36:46.971Z,20.88
2019-05-30T09:37:47.767Z,21.42
2019-05-30T09:38:47.453Z,21.48
2019-05-30T09:39:47.394Z,21.18
2019-05-30T09:40:47.542Z,21.12
2019-05-30T09:41:47.673Z,21.34
2019-05-30T09:42:47.332Z,21.71
2019-05-30T09:43:46.476Z,21.11
2019-05-30T09:44:50.204Z,21.12
2019-05-30T09:45:46.089Z,21.43
2019-05-30T09:46:46.991Z,21.71
2019-05-30T09:47:47.167Z,21.91
2019-05-30T09:48:46.712Z,22.27
2019-05-30T09:49:46.561Z,22.54
2019-05-30T09:50:46.745Z,23.01
2019-05-30T09:51:46.906Z,22.70
2019-05-30T09:52:45.444Z,22.99
2019-05-30T09:53:45.949Z,22.74
2019-05-30T09:54:45.898Z,22.46
2019-05-30T09:55:46.178Z,22.89
2019-05-30T09:56:46.289Z,23.14
2019-05-30T09:57:45.840Z,23.12
2019-05-30T09:58:46.037Z,23.38
2019-05-30T09:59:46.393Z,23.50
2019-05-30T10:00:46.372Z,23.67
2019-05-30T10:01:45.995Z,23.38
2019-05-30T10:02:45.452Z,23.35
2019-05-30T10:03:45.164Z,23.39
2019-05-30T10:04:45.747Z,23.49
2019-05-30T10:05:45.098Z,23.57
2019-05-30T10:06:44.678Z,23.68
2019-05-30T10:07:45.545Z,23.63
2019-05-30T10:08:45.919Z,23.89
2019-05-30T10:09:44.542Z,23.82
2019-05-30T10:10:45.646Z,23.54
2019-05-30T10:11:44.457Z,23.71
2019-05-30T10:12:44.109Z,23.49
2019-05-30T10:13:44.041Z,23.26
2019-05-30T10:14:45.174Z,23.41
2019-05-30T10:15:44.074Z,22.72
2019-05-30T10:16:47.558Z,21.75
2019-05-30T10:17:44.545Z,21.36
2019-05-30T10:18:44.265Z,21.48
2019-05-30T10:19:45.368Z,20.37
2019-05-30T10:20:43.123Z,20.79
2019-05-30T10:21:43.041Z,21.06
2019-05-30T10:22:42.959Z,21.64
2019-05-30T10:23:42.876Z,22.26
2019-05-30T10:24:43.107Z,22.35
2019-05-30T10:25:42.724Z,22.45
2019-05-30T10:26:42.629Z,22.56
2019-05-30T10:27:42.546Z,22.76
2019-05-30T10:28:42.466Z,22.89
2019-05-30T10:29:42.382Z,23.18
2019-05-30T10:30:42.312Z,22.94
2019-05-30T10:31:42.216Z,23.37
2019-05-30T10:32:42.132Z,23.12
2019-05-30T10:33:42.051Z,23.49
2019-05-30T10:34:41.970Z,23.49
2019-05-30T10:35:41.908Z,23.50
2019-05-30T10:36:44.540Z,23.38
2019-05-30T10:37:41.725Z,23.78
2019-05-30T10:38:41.638Z,23.72
2019-05-30T10:39:41.559Z,23.89
2019-05-30T10:40:41.488Z,23.68
2019-05-30T10:41:41.396Z,23.38
2019-05-30T10:42:41.314Z,23.50
2019-05-30T10:43:41.229Z,23.54
2019-05-30T10:44:41.149Z,23.45
2019-05-30T10:45:41.082Z,22.54
2019-05-30T10:46:40.982Z,22.11
2019-05-30T10:47:40.901Z,21.67
2019-05-30T10:48:40.817Z,21.56
2019-05-30T10:49:40.749Z,21.93
2019-05-30T10:50:40.666Z,21.96
2019-05-30T10:51:40.572Z,21.94
2019-05-30T10:52:40.488Z,22.21
2019-05-30T10:53:40.406Z,22.56
2019-05-30T10:54:40.323Z,23.09
2019-05-30T10:55:40.253Z,23.60
2019-05-30T10:56:40.157Z,23.75
2019-05-30T10:57:40.073Z,23.79
2019-05-30T10:58:39.993Z,23.67
2019-05-30T10:59:39.914Z,23.57
2019-05-30T11:00:39.844Z,23.56
2019-05-30T11:01:39.743Z,23.53
2019-05-30T11:02:39.664Z,23.37
2019-05-30T11:03:39.583Z,23.62
2019-05-30T11:04:39.502Z,24.09
2019-05-30T11:05:39.430Z,23.89
2019-05-30T11:06:39.331Z,23.77
2019-05-30T11:07:53.179Z,23.63
2019-05-30T11:08:39.166Z,23.52
2019-05-30T11:09:39.086Z,23.72
2019-05-30T11:10:39.006Z,23.86
2019-05-30T11:11:38.937Z,24.12
2019-05-30T11:12:38.838Z,24.06
2019-05-30T11:13:38.753Z,24.18
2019-05-30T11:14:38.677Z,23.84
2019-05-30T11:15:38.593Z,23.44
2019-05-30T11:16:38.523Z,23.86
2019-05-30T11:17:38.426Z,24.19
2019-05-30T11:18:38.344Z,24.18
2019-05-30T11:19:38.295Z,24.21
2019-05-30T11:20:38.182Z,23.67
2019-05-30T11:21:38.121Z,23.64
2019-05-30T11:22:38.033Z,23.01
2019-05-30T11:23:37.935Z,23.62
2019-05-30T11:24:38.069Z,23.57
2019-05-30T11:25:37.771Z,23.32
2019-05-30T11:26:37.705Z,23.52
2019-05-30T11:27:37.609Z,23.45
2019-05-30T11:28:37.526Z,23.68
2019-05-30T11:29:37.445Z,23.15
2019-05-30T11:30:37.364Z,23.41
2019-05-30T11:31:37.298Z,23.11
2019-05-30T11:32:37.327Z,23.38
2019-05-30T11:33:37.123Z,23.59
2019-05-30T11:34:37.043Z,23.38
2019-05-30T11:35:36.953Z,23.12
2019-05-30T11:36:36.886Z,23.22
2019-05-30T11:37:36.788Z,23.16
2019-05-30T11:38:36.722Z,22.56
2019-05-30T11:39:36.732Z,22.04
2019-05-30T11:40:36.623Z,22.19
2019-05-30T11:41:36.477Z,22.26
2019-05-30T11:42:36.380Z,22.44
2019-05-30T11:43:36.300Z,22.72
2019-05-30T11:44:36.215Z,22.63
2019-05-30T11:45:36.133Z,22.72
2019-05-30T11:46:36.190Z,22.96
2019-05-30T11:47:35.969Z,23.15
2019-05-30T11:48:35.888Z,23.15
2019-05-30T11:49:35.806Z,23.35
2019-05-30T11:50:35.723Z,23.11
2019-05-30T11:51:35.655Z,23.34
2019-05-30T11:52:35.556Z,23.23
2019-05-30T11:53:35.582Z,23.31
2019-05-30T11:54:35.397Z,23.50
2019-05-30T11:55:35.317Z,23.82
2019-05-30T11:56:35.232Z,23.84
2019-05-30T11:57:35.164Z,24.06
2019-05-30T11:58:35.066Z,23.86
2019-05-30T11:59:34.983Z,23.87
2019-05-30T12:00:35.007Z,23.81
2019-05-30T12:01:34.825Z,23.87
2019-05-30T12:02:34.754Z,24.05
2019-05-30T12:03:34.660Z,24.21
2019-05-30T12:04:34.632Z,23.90
2019-05-30T12:05:34.492Z,24.05
2019-05-30T12:06:34.413Z,23.87
2019-05-30T12:07:36.703Z,23.62
2019-05-30T12:08:34.246Z,23.90
2019-05-30T12:09:34.164Z,24.08
2019-05-30T12:10:34.085Z,24.24
2019-05-30T12:11:34.002Z,24.24
2019-05-30T12:12:33.932Z,24.14
2019-05-30T12:13:33.838Z,24.09
2019-05-30T12:14:33.863Z,24.23
2019-05-30T12:15:33.681Z,24.21
2019-05-30T12:16:33.607Z,24.15
2019-05-30T12:17:33.524Z,24.46
2019-05-30T12:18:33.430Z,24.64
2019-05-30T12:19:33.346Z,24.29
2019-05-30T12:20:33.293Z,23.72
2019-05-30T12:21:33.182Z,23.82
2019-05-30T12:22:33.124Z,24.18
2019-05-30T12:23:33.019Z,24.09
2019-05-30T12:24:32.942Z,23.67
2019-05-30T12:25:32.854Z,23.75
2019-05-30T12:26:33.960Z,23.81
2019-05-30T12:27:32.707Z,24.00
2019-05-30T12:28:32.607Z,23.62
2019-05-30T12:29:32.536Z,23.47
2019-05-30T12:30:32.444Z,23.53
2019-05-30T12:31:32.363Z,23.45
2019-05-30T12:32:32.295Z,23.39
2019-05-30T12:33:32.200Z,23.41
2019-05-30T12:34:32.116Z,23.37
2019-05-30T12:35:32.035Z,23.49
2019-05-30T12:36:32.028Z,23.32
2019-05-30T12:37:31.874Z,23.47
2019-05-30T12:38:31.802Z,23.62
2019-05-30T12:39:31.705Z,23.68
2019-05-30T12:40:31.623Z,23.56
2019-05-30T12:41:31.543Z,23.42
2019-05-30T12:42:31.461Z,23.18
2019-05-30T12:43:31.396Z,23.15
2019-05-30T12:44:31.309Z,23.03
2019-05-30T12:45:31.215Z,23.16
2019-05-30T12:46:31.129Z,23.25
2019-05-30T12:47:31.047Z,23.12
2019-05-30T12:48:30.999Z,23.12
2019-05-30T12:49:30.884Z,22.96
2019-05-30T12:50:30.803Z,22.85
2019-05-30T12:51:30.719Z,22.82
2019-05-30T12:52:30.635Z,22.81
2019-05-30T12:53:30.574Z,22.74
2019-05-30T12:54:30.472Z,22.61
2019-05-30T12:55:30.413Z,22.39
2019-05-30T12:56:30.307Z,22.20
2019-05-30T12:57:30.226Z,22.08
2019-05-30T12:58:30.159Z,21.66
2019-05-30T12:59:30.063Z,21.75
2019-05-30T13:00:29.995Z,21.67
2019-05-30T13:01:29.897Z,21.26
2019-05-30T13:02:29.821Z,21.22
2019-05-30T13:03:29.764Z,20.93